createdAt,value
2022-11-23T00:00:10.374Z,99635.69
2022-11-23T00:02:37.424Z,99636.97
2022-11-23T00:05:05.051Z,99654.53
2022-11-23T00:07:31.690Z,99654.53
2022-11-23T00:09:58.715Z,99659.00
2022-11-23T00:12:25.705Z,99659.00
2022-11-23T00:14:52.735Z,99660.81
2022-11-23T00:17:19.289Z,99663.47
2022-11-23T00:19:45.846Z,99668.09
2022-11-23T00:22:12.381Z,99668.75
2022-11-23T00:24:39.420Z,99667.09
2022-11-23T00:27:05.986Z,99674.88
2022-11-23T00:29:32.765Z,99683.81
2022-11-23T00:31:59.558Z,99689.13
2022-11-23T00:34:26.099Z,99685.84
2022-11-23T00:36:53.142Z,99693.59
2022-11-23T00:39:19.715Z,99692.28
2022-11-23T00:41:46.380Z,99689.78
2022-11-23T00:44:12.934Z,99686.63
2022-11-23T00:46:39.537Z,99703.34
2022-11-23T00:49:06.856Z,99697.22
2022-11-23T00:51:36.399Z,99712.47
2022-11-23T00:54:05.316Z,99707.34
2022-11-23T00:56:34.291Z,99707.19
2022-11-23T00:59:03.116Z,99712.47
2022-11-23T01:01:33.882Z,99702.50
2022-11-23T01:04:02.528Z,99704.50
2022-11-23T01:06:42.032Z,99704.19
2022-11-23T01:09:17.822Z,99695.72
2022-11-23T01:11:45.270Z,99717.25
2022-11-23T01:14:12.698Z,99717.41
2022-11-23T01:16:40.378Z,99723.38
2022-11-23T01:19:09.937Z,99726.88
2022-11-23T01:21:36.634Z,99732.16
2022-11-23T01:24:14.660Z,99727.84
2022-11-23T01:26:41.642Z,99720.22
2022-11-23T01:29:08.681Z,99735.63
2022-11-23T01:31:35.223Z,99733.31
2022-11-23T01:34:03.670Z,99726.34
2022-11-23T01:36:33.044Z,99722.03
2022-11-23T01:39:01.546Z,99730.66
2022-11-23T01:41:34.959Z,99731.97
2022-11-23T01:44:02.304Z,99737.63
2022-11-23T01:46:28.824Z,99735.78
2022-11-23T01:49:03.655Z,99725.38
2022-11-23T01:51:39.948Z,99716.75
2022-11-23T01:54:22.252Z,99724.69
2022-11-23T01:56:55.556Z,99721.06
2022-11-23T01:59:24.204Z,99710.63
2022-11-23T02:01:50.792Z,99714.59
2022-11-23T02:04:23.822Z,99718.06
2022-11-23T02:06:53.023Z,99724.38
2022-11-23T02:09:21.537Z,99725.38
2022-11-23T02:11:48.639Z,99724.69
2022-11-23T02:14:19.070Z,99729.66
2022-11-23T02:16:49.757Z,99734.97
2022-11-23T02:20:01.910Z,99732.47
2022-11-23T02:22:50.219Z,99744.72
2022-11-23T02:25:33.731Z,99740.41
2022-11-23T02:28:01.534Z,99736.28
2022-11-23T02:30:31.658Z,99733.94
2022-11-23T02:32:58.709Z,99747.38
2022-11-23T02:35:25.286Z,99742.25
2022-11-23T02:37:52.983Z,99744.56
2022-11-23T02:40:31.377Z,99743.91
2022-11-23T02:42:59.762Z,99741.25
2022-11-23T02:45:37.501Z,99739.44
2022-11-23T02:48:05.248Z,99723.53
2022-11-23T02:50:32.838Z,99734.97
2022-11-23T02:52:59.892Z,99723.34
2022-11-23T02:55:26.980Z,99741.41
2022-11-23T02:57:53.595Z,99748.22
2022-11-23T03:00:20.281Z,99738.25
2022-11-23T03:02:47.305Z,99749.03
2022-11-23T03:05:14.100Z,99752.16
2022-11-23T03:07:41.217Z,99750.84
2022-11-23T03:10:08.703Z,99751.31
2022-11-23T03:12:35.753Z,99753.50
2022-11-23T03:15:02.714Z,99752.50
2022-11-23T03:17:29.826Z,99751.53
2022-11-23T03:19:56.349Z,99742.75
2022-11-23T03:22:22.874Z,99748.03
2022-11-23T03:24:49.851Z,99753.34
2022-11-23T03:27:16.965Z,99733.94
2022-11-23T03:29:43.930Z,99743.22
2022-11-23T03:32:10.512Z,99756.81
2022-11-23T03:34:37.512Z,99751.53
2022-11-23T03:37:04.510Z,99751.69
2022-11-23T03:39:31.227Z,99757.66
2022-11-23T03:41:58.459Z,99762.13
2022-11-23T03:44:25.536Z,99756.16
2022-11-23T03:46:52.106Z,99763.09
2022-11-23T03:49:18.651Z,99763.09
2022-11-23T03:51:48.415Z,99772.72
2022-11-23T03:54:17.768Z,99771.88
2022-11-23T03:56:44.300Z,99775.84
2022-11-23T03:59:10.955Z,99777.34
2022-11-23T04:01:42.077Z,99772.88
2022-11-23T04:04:09.066Z,99789.75
2022-11-23T04:06:35.653Z,99781.81
2022-11-23T04:09:02.656Z,99779.00
2022-11-23T04:11:29.863Z,99785.28
2022-11-23T04:13:57.358Z,99778.16
2022-11-23T04:16:24.379Z,99772.88
2022-11-23T04:18:50.927Z,99772.88
2022-11-23T04:21:17.455Z,99771.06
2022-11-23T04:23:44.919Z,99775.53
2022-11-23T04:26:11.907Z,99772.88
2022-11-23T04:28:38.429Z,99779.00
2022-11-23T04:31:05.640Z,99781.66
2022-11-23T04:33:32.695Z,99779.00
2022-11-23T04:35:59.694Z,99771.38
2022-11-23T04:38:26.278Z,99773.69
2022-11-23T04:40:53.512Z,99771.88
2022-11-23T04:43:20.480Z,99769.41
2022-11-23T04:45:47.509Z,99771.06
2022-11-23T04:48:14.160Z,99771.22
2022-11-23T04:50:43.792Z,99770.91
2022-11-23T04:53:13.367Z,99763.25
2022-11-23T04:55:40.374Z,99774.53
2022-11-23T04:58:07.313Z,99778.84
2022-11-23T05:00:35.491Z,99767.56
2022-11-23T05:03:02.537Z,99770.38
2022-11-23T05:05:29.121Z,99768.25
2022-11-23T05:07:56.668Z,99778.84
2022-11-23T05:10:23.229Z,99777.03
2022-11-23T05:12:49.860Z,99770.91
2022-11-23T05:15:17.025Z,99768.25
2022-11-23T05:17:44.017Z,99762.13
2022-11-23T05:20:11.652Z,99763.09
2022-11-23T05:22:38.193Z,99756.81
2022-11-23T05:25:05.440Z,99741.72
2022-11-23T05:27:32.488Z,99751.53
2022-11-23T05:29:59.170Z,99758.47
2022-11-23T05:32:25.703Z,99748.88
2022-11-23T05:34:52.324Z,99739.22
2022-11-23T05:37:19.403Z,99762.94
2022-11-23T05:39:45.965Z,99758.63
2022-11-23T05:42:12.576Z,99767.41
2022-11-23T05:44:39.642Z,99764.63
2022-11-23T05:47:06.192Z,99768.41
2022-11-23T05:49:32.878Z,99773.53
2022-11-23T05:51:59.589Z,99782.31
2022-11-23T05:54:26.154Z,99785.97
2022-11-23T05:56:52.714Z,99781.66
2022-11-23T05:59:19.377Z,99785.78
2022-11-23T06:01:46.507Z,99774.19
2022-11-23T06:04:13.419Z,99791.09
2022-11-23T06:06:40.501Z,99796.41
2022-11-23T06:09:07.709Z,99789.44
2022-11-23T06:11:35.362Z,99783.97
2022-11-23T06:14:01.948Z,99788.44
2022-11-23T06:16:29.106Z,99793.75
2022-11-23T06:18:55.686Z,99797.22
2022-11-23T06:21:22.271Z,99793.75
2022-11-23T06:23:48.959Z,99785.78
2022-11-23T06:26:16.160Z,99799.03
2022-11-23T06:28:42.726Z,99791.94
2022-11-23T06:31:10.524Z,99791.94
2022-11-23T06:33:37.180Z,99780.47
2022-11-23T06:36:06.488Z,99794.56
2022-11-23T06:38:33.355Z,99790.94
2022-11-23T06:41:01.121Z,99792.75
2022-11-23T06:43:29.083Z,99771.53
2022-11-23T06:45:56.313Z,99783.63
2022-11-23T06:48:23.500Z,99791.78
2022-11-23T06:50:50.551Z,99792.56
2022-11-23T06:53:17.145Z,99791.56
2022-11-23T06:55:44.270Z,99800.34
2022-11-23T06:58:11.488Z,99795.88
2022-11-23T07:00:38.055Z,99796.22
2022-11-23T07:03:05.149Z,99809.13
2022-11-23T07:05:31.686Z,99817.06
2022-11-23T07:07:58.238Z,99816.41
2022-11-23T07:10:25.820Z,99817.75
2022-11-23T07:12:53.053Z,99813.44
2022-11-23T07:15:20.168Z,99811.09
2022-11-23T07:17:46.750Z,99822.06
2022-11-23T07:20:13.823Z,99816.75
2022-11-23T07:22:41.261Z,99824.03
2022-11-23T07:25:08.452Z,99839.63
2022-11-23T07:27:34.972Z,99846.56
2022-11-23T07:30:01.557Z,99846.56
2022-11-23T07:32:28.151Z,99847.41
2022-11-23T07:34:55.194Z,99850.06
2022-11-23T07:37:21.747Z,99848.22
2022-11-23T07:39:57.410Z,99849.91
2022-11-23T07:42:35.557Z,99853.53
2022-11-23T07:45:05.472Z,99864.81
2022-11-23T07:47:32.649Z,99864.97
2022-11-23T07:49:59.455Z,99864.28
2022-11-23T07:52:26.574Z,99870.09
2022-11-23T07:54:53.596Z,99871.75
2022-11-23T07:57:20.120Z,99875.56
2022-11-23T07:59:46.612Z,99866.78
2022-11-23T08:02:15.234Z,99866.63
2022-11-23T08:04:41.874Z,99874.25
2022-11-23T08:07:08.978Z,99874.41
2022-11-23T08:09:35.615Z,99886.47
2022-11-23T08:12:02.400Z,99890.78
2022-11-23T08:14:29.028Z,99882.00
2022-11-23T08:16:56.145Z,99879.56
2022-11-23T08:19:22.779Z,99888.16
2022-11-23T08:21:49.385Z,99869.28
2022-11-23T08:24:15.961Z,99884.50
2022-11-23T08:26:42.583Z,99878.72
2022-11-23T08:29:09.083Z,99881.03
2022-11-23T08:31:38.690Z,99880.03
2022-11-23T08:34:05.243Z,99881.84
2022-11-23T08:36:31.887Z,99886.00
2022-11-23T08:38:58.445Z,99880.88
2022-11-23T08:41:25.623Z,99880.88
2022-11-23T08:43:53.199Z,99879.72
2022-11-23T08:46:19.807Z,99886.84
2022-11-23T08:48:46.381Z,99883.22
2022-11-23T08:51:12.925Z,99880.03
2022-11-23T08:53:39.781Z,99877.38
2022-11-23T08:56:07.819Z,99878.75
2022-11-23T08:58:34.960Z,99886.69
2022-11-23T09:01:01.585Z,99875.09
2022-11-23T09:03:28.113Z,99884.72
2022-11-23T09:05:59.586Z,99883.72
2022-11-23T09:08:26.080Z,99877.91
2022-11-23T09:10:52.574Z,99880.09
2022-11-23T09:13:19.710Z,99875.94
2022-11-23T09:15:46.478Z,99880.91
2022-11-23T09:18:13.070Z,99875.63
2022-11-23T09:20:40.328Z,99867.97
2022-11-23T09:23:12.248Z,99883.56
2022-11-23T09:25:42.817Z,99876.44
2022-11-23T09:28:09.413Z,99876.44
2022-11-23T09:30:38.918Z,99865.03
2022-11-23T09:33:05.501Z,99868.31
2022-11-23T09:35:32.020Z,99859.38
2022-11-23T09:37:59.327Z,99859.88
2022-11-23T09:40:43.780Z,99861.22
2022-11-23T09:43:28.619Z,99860.91
2022-11-23T09:45:58.572Z,99856.25
2022-11-23T09:48:30.656Z,99847.47
2022-11-23T09:51:06.250Z,99847.16
2022-11-23T09:53:46.302Z,99841.53
2022-11-23T09:56:22.706Z,99836.91
2022-11-23T09:58:54.879Z,99833.00
2022-11-23T10:01:21.943Z,99826.50
2022-11-23T10:03:49.588Z,99822.53
2022-11-23T10:06:22.797Z,99823.22
2022-11-23T10:09:31.443Z,99814.94
2022-11-23T10:12:25.477Z,99814.78
2022-11-23T10:15:12.165Z,99810.09
2022-11-23T10:18:11.009Z,99804.47
2022-11-23T10:20:46.547Z,99798.19
2022-11-23T10:23:48.249Z,99796.38
2022-11-23T10:26:18.069Z,99789.25
2022-11-23T10:28:46.745Z,99793.22
2022-11-23T10:31:14.882Z,99793.06
2022-11-23T10:34:03.754Z,99787.91
2022-11-23T10:36:36.025Z,99784.94
2022-11-23T10:39:14.878Z,99785.75
2022-11-23T10:41:41.880Z,99792.06
2022-11-23T10:44:20.390Z,99788.91
2022-11-23T10:46:46.983Z,99788.91
2022-11-23T10:49:18.456Z,99788.06
2022-11-23T10:51:55.161Z,99795.69
2022-11-23T10:54:32.339Z,99789.56
2022-11-23T10:57:08.585Z,99788.75
2022-11-23T10:59:38.206Z,99783.28
2022-11-23T11:02:22.178Z,99790.91
2022-11-23T11:04:55.815Z,99786.44
2022-11-23T11:07:28.495Z,99788.25
2022-11-23T11:10:01.518Z,99781.28
2022-11-23T11:12:29.813Z,99787.09
2022-11-23T11:14:59.315Z,99787.72
2022-11-23T11:17:34.809Z,99784.25
2022-11-23T11:20:31.455Z,99779.78
2022-11-23T11:23:15.585Z,99786.06
2022-11-23T11:25:42.867Z,99786.72
2022-11-23T11:28:37.559Z,99786.72
2022-11-23T11:31:10.055Z,99787.41
2022-11-23T11:33:46.814Z,99785.06
2022-11-23T11:36:16.588Z,99790.06
2022-11-23T11:39:14.881Z,99790.38
2022-11-23T11:41:36.914Z,99785.06
2022-11-23T11:44:12.216Z,99787.41
2022-11-23T11:46:42.446Z,99784.09
2022-11-23T11:49:18.186Z,99790.06
2022-11-23T11:51:56.833Z,99781.25
2022-11-23T11:54:53.723Z,99779.28
2022-11-23T11:57:24.065Z,99770.31
2022-11-23T11:59:56.123Z,99764.84
2022-11-23T12:02:33.874Z,99764.34
2022-11-23T12:05:23.143Z,99773.47
2022-11-23T12:08:45.238Z,99754.06
2022-11-23T12:11:13.168Z,99745.13
2022-11-23T12:13:45.501Z,99740.66
2022-11-23T12:16:47.696Z,99725.56
2022-11-23T12:19:35.077Z,99721.09
2022-11-23T12:22:28.846Z,99726.38
2022-11-23T12:25:24.578Z,99731.50
2022-11-23T12:28:09.361Z,99726.38
2022-11-23T12:30:50.930Z,99703.16
2022-11-23T12:33:43.580Z,99720.72
2022-11-23T12:36:33.783Z,99725.19
2022-11-23T12:39:11.776Z,99720.72
2022-11-23T12:42:02.354Z,99712.75
2022-11-23T12:44:35.049Z,99714.41
2022-11-23T12:47:30.155Z,99716.91
2022-11-23T12:50:10.436Z,99708.94
2022-11-23T12:52:51.919Z,99714.25
2022-11-23T12:55:39.642Z,99712.44
2022-11-23T12:58:24.028Z,99695.22
2022-11-23T13:00:56.526Z,99711.44
2022-11-23T13:03:46.985Z,99708.63
2022-11-23T13:06:19.227Z,99707.63
2022-11-23T13:09:00.939Z,99711.09
2022-11-23T13:11:27.461Z,99707.44
2022-11-23T13:14:08.942Z,99702.16
2022-11-23T13:16:43.280Z,99702.97
2022-11-23T13:19:26.597Z,99705.63
2022-11-23T13:21:54.104Z,99699.50
2022-11-23T13:24:33.148Z,99695.84
2022-11-23T13:27:15.269Z,99698.50
2022-11-23T13:29:51.037Z,99700.16
2022-11-23T13:32:57.810Z,99708.28
2022-11-23T13:35:24.920Z,99705.63
2022-11-23T13:38:15.140Z,99712.75
2022-11-23T13:40:46.229Z,99718.88
2022-11-23T13:43:21.376Z,99717.91
2022-11-23T13:46:46.006Z,99717.06
2022-11-23T13:49:32.575Z,99720.56
2022-11-23T13:52:18.398Z,99723.22
2022-11-23T13:55:08.857Z,99724.38
2022-11-23T13:57:41.454Z,99722.53
2022-11-23T14:00:45.621Z,99731.16
2022-11-23T14:03:51.272Z,99727.69
2022-11-23T14:06:41.883Z,99725.38
2022-11-23T14:09:22.212Z,99721.56
2022-11-23T14:12:19.186Z,99730.34
2022-11-23T14:14:57.511Z,99726.84
2022-11-23T14:17:42.497Z,99733.97
2022-11-23T14:20:38.506Z,99736.63
2022-11-23T14:23:26.394Z,99737.63
2022-11-23T14:26:11.429Z,99757.03
2022-11-23T14:28:49.731Z,99756.22
2022-11-23T14:31:34.834Z,99755.22
2022-11-23T14:34:07.602Z,99760.34
2022-11-23T14:37:01.102Z,99757.53
2022-11-23T14:39:49.094Z,99765.28
2022-11-23T14:42:20.738Z,99766.78
2022-11-23T14:44:48.846Z,99765.13
2022-11-23T14:47:26.128Z,99777.06
2022-11-23T14:49:53.431Z,99769.13
2022-11-23T14:52:23.744Z,99773.91
2022-11-23T14:54:51.691Z,99782.88
2022-11-23T14:57:20.762Z,99784.69
2022-11-23T14:59:50.541Z,99779.84
2022-11-23T15:02:22.722Z,99775.22
2022-11-23T15:05:14.160Z,99780.19
2022-11-23T15:08:20.534Z,99774.06
2022-11-23T15:11:09.755Z,99767.91
2022-11-23T15:13:49.164Z,99771.22
2022-11-23T15:16:18.231Z,99765.91
2022-11-23T15:18:45.081Z,99779.84
2022-11-23T15:21:12.099Z,99775.38
2022-11-23T15:23:45.695Z,99790.31
2022-11-23T15:26:46.758Z,99787.16
2022-11-23T15:29:29.279Z,99794.63
2022-11-23T15:32:22.339Z,99794.44
2022-11-23T15:34:42.409Z,99802.41
2022-11-23T15:37:10.222Z,99807.53
2022-11-23T15:39:37.750Z,99801.06
2022-11-23T15:42:04.860Z,99799.22
2022-11-23T15:44:33.229Z,99805.38
2022-11-23T15:47:07.078Z,99813.16
2022-11-23T15:49:38.577Z,99803.53
2022-11-23T15:52:05.477Z,99808.34
2022-11-23T15:54:37.410Z,99811.00
2022-11-23T15:57:09.632Z,99818.97
2022-11-23T15:59:47.285Z,99823.97
2022-11-23T16:02:21.527Z,99821.31
2022-11-23T16:04:49.136Z,99824.81
2022-11-23T16:07:15.678Z,99824.63
2022-11-23T16:09:51.123Z,99830.94
2022-11-23T16:12:26.447Z,99829.75
2022-11-23T16:14:55.332Z,99828.94
2022-11-23T16:17:25.519Z,99840.22
2022-11-23T16:19:56.814Z,99829.59
2022-11-23T16:22:26.461Z,99837.38
2022-11-23T16:25:18.753Z,99840.88
2022-11-23T16:27:45.428Z,99844.34
2022-11-23T16:30:26.181Z,99845.19
2022-11-23T16:32:52.816Z,99850.34
2022-11-23T16:35:21.720Z,99853.81
2022-11-23T16:37:48.252Z,99855.66
2022-11-23T16:40:15.209Z,99853.81
2022-11-23T16:42:42.001Z,99856.31
2022-11-23T16:45:09.804Z,99864.09
2022-11-23T16:47:52.148Z,99872.06
2022-11-23T16:50:19.071Z,99871.88
2022-11-23T16:52:46.120Z,99867.41
2022-11-23T16:55:12.659Z,99877.03
2022-11-23T16:57:40.170Z,99872.25
2022-11-23T17:00:19.507Z,99869.41
2022-11-23T17:02:46.454Z,99877.19
2022-11-23T17:05:19.072Z,99876.19
2022-11-23T17:07:46.326Z,99879.03
2022-11-23T17:10:14.194Z,99872.56
2022-11-23T17:12:53.988Z,99884.84
2022-11-23T17:15:23.450Z,99886.50
2022-11-23T17:17:50.663Z,99891.00
2022-11-23T17:20:18.772Z,99898.81
2022-11-23T17:22:45.353Z,99889.38
2022-11-23T17:25:15.067Z,99891.66
2022-11-23T17:27:42.347Z,99905.28
2022-11-23T17:30:16.280Z,99915.56
2022-11-23T17:32:43.267Z,99912.75
2022-11-23T17:35:10.080Z,99921.38
2022-11-23T17:37:37.523Z,99920.88
2022-11-23T17:40:04.647Z,99927.84
2022-11-23T17:42:31.660Z,99931.50
2022-11-23T17:44:58.643Z,99934.31
2022-11-23T17:47:31.435Z,99930.19
2022-11-23T17:49:58.854Z,99922.84
2022-11-23T17:52:26.342Z,99947.78
2022-11-23T17:54:53.560Z,99954.09
2022-11-23T17:57:24.311Z,99944.94
2022-11-23T17:59:51.507Z,99955.09
2022-11-23T18:02:19.487Z,99956.03
2022-11-23T18:04:47.020Z,99954.38
2022-11-23T18:07:14.808Z,99956.22
2022-11-23T18:09:42.046Z,99957.22
2022-11-23T18:12:10.090Z,99966.16
2022-11-23T18:14:37.295Z,99968.66
2022-11-23T18:17:03.925Z,99972.47
2022-11-23T18:19:30.728Z,99973.31
2022-11-23T18:21:58.152Z,99983.09
2022-11-23T18:24:24.671Z,99975.28
2022-11-23T18:26:51.218Z,99985.06
2022-11-23T18:29:17.793Z,99988.56
2022-11-23T18:31:44.983Z,99995.84
2022-11-23T18:34:11.631Z,99991.38
2022-11-23T18:36:38.671Z,99997.69
2022-11-23T18:39:06.295Z,100000.34
2022-11-23T18:41:32.868Z,100003.81
2022-11-23T18:43:59.450Z,100006.63
2022-11-23T18:46:26.477Z,100010.31
2022-11-23T18:48:53.519Z,100011.31
2022-11-23T18:51:20.083Z,100008.16
2022-11-23T18:53:47.825Z,100014.97
2022-11-23T18:56:14.653Z,100016.78
2022-11-23T18:58:42.816Z,100014.97
2022-11-23T19:01:17.845Z,100031.72
2022-11-23T19:03:46.329Z,100029.22
2022-11-23T19:06:14.464Z,100024.75
2022-11-23T19:08:49.732Z,100031.88
2022-11-23T19:11:24.613Z,100037.19
2022-11-23T19:13:53.803Z,100034.69
2022-11-23T19:16:31.819Z,100046.97
2022-11-23T19:19:06.904Z,100051.47
2022-11-23T19:21:35.464Z,100048.44
2022-11-23T19:24:02.874Z,100046.47
2022-11-23T19:26:30.485Z,100060.41
2022-11-23T19:28:59.444Z,100062.22
2022-11-23T19:31:30.829Z,100066.72
2022-11-23T19:34:00.826Z,100073.00
2022-11-23T19:36:29.875Z,100073.00
2022-11-23T19:38:58.265Z,100073.16
2022-11-23T19:41:29.817Z,100074.47
2022-11-23T19:43:59.013Z,100079.31
2022-11-23T19:46:26.302Z,100092.59
2022-11-23T19:48:54.400Z,100088.59
2022-11-23T19:51:21.208Z,100093.91
2022-11-23T19:53:49.283Z,100097.06
2022-11-23T19:56:17.926Z,100095.41
2022-11-23T19:58:45.099Z,100089.75
2022-11-23T20:01:14.795Z,100099.88
2022-11-23T20:03:43.651Z,100091.91
2022-11-23T20:06:18.542Z,100088.44
2022-11-23T20:08:45.555Z,100100.88
2022-11-23T20:11:16.833Z,100108.00
2022-11-23T20:13:44.137Z,100106.34
2022-11-23T20:16:17.536Z,100113.50
2022-11-23T20:18:45.387Z,100104.69
2022-11-23T20:21:16.873Z,100097.72
2022-11-23T20:23:45.641Z,100096.22
2022-11-23T20:26:19.266Z,100108.50
2022-11-23T20:28:46.965Z,100119.13
2022-11-23T20:31:20.644Z,100111.16
2022-11-23T20:33:50.356Z,100120.09
2022-11-23T20:36:28.112Z,100114.81
2022-11-23T20:38:56.151Z,100116.47
2022-11-23T20:41:26.794Z,100125.41
2022-11-23T20:43:56.392Z,100127.25
2022-11-23T20:46:53.837Z,100129.06
2022-11-23T20:49:11.007Z,100120.44
2022-11-23T20:51:38.099Z,100127.41
2022-11-23T20:54:05.665Z,100132.72
2022-11-23T20:56:32.851Z,100142.34
2022-11-23T20:59:04.668Z,100151.28
2022-11-23T21:01:32.008Z,100152.94
2022-11-23T21:03:59.666Z,100168.19
2022-11-23T21:06:27.316Z,100166.69
2022-11-23T21:08:54.398Z,100177.97
2022-11-23T21:11:41.051Z,100173.66
2022-11-23T21:14:17.899Z,100172.81
2022-11-23T21:16:55.332Z,100170.19
2022-11-23T21:19:24.545Z,100178.28
2022-11-23T21:21:51.321Z,100187.75
2022-11-23T21:24:18.525Z,100181.63
2022-11-23T21:26:46.173Z,100187.75
2022-11-23T21:29:12.986Z,100186.94
2022-11-23T21:31:43.443Z,100193.22
2022-11-23T21:34:19.772Z,100194.91
2022-11-23T21:36:46.958Z,100181.75
2022-11-23T21:39:14.464Z,100198.84
2022-11-23T21:41:43.463Z,100208.31
2022-11-23T21:44:11.409Z,100202.34
2022-11-23T21:46:39.276Z,100208.66
2022-11-23T21:49:07.333Z,100203.97
2022-11-23T21:51:34.845Z,100232.53
2022-11-23T21:54:04.158Z,100220.28
2022-11-23T21:56:31.585Z,100212.25
2022-11-23T21:58:58.966Z,100237.03
2022-11-23T22:01:33.585Z,100236.19
2022-11-23T22:04:02.223Z,100232.19
2022-11-23T22:06:29.486Z,100245.97
2022-11-23T22:08:57.695Z,100242.47
2022-11-23T22:11:25.507Z,100247.94
2022-11-23T22:13:56.186Z,100242.56
2022-11-23T22:16:28.162Z,100257.41
2022-11-23T22:18:56.215Z,100261.06
2022-11-23T22:21:27.832Z,100264.69
2022-11-23T22:23:54.924Z,100270.00
2022-11-23T22:26:22.377Z,100270.00
2022-11-23T22:28:50.949Z,100256.03
2022-11-23T22:31:20.229Z,100276.31
2022-11-23T22:33:47.824Z,100279.94
2022-11-23T22:36:19.711Z,100278.97
2022-11-23T22:38:46.955Z,100269.63
2022-11-23T22:41:17.774Z,100282.91
2022-11-23T22:43:44.568Z,100282.22
2022-11-23T22:46:13.613Z,100282.06
2022-11-23T22:48:41.401Z,100288.22
2022-11-23T22:51:11.652Z,100289.50
2022-11-23T22:53:44.671Z,100301.78
2022-11-23T22:56:15.673Z,100296.63
2022-11-23T22:58:42.955Z,100294.16
2022-11-23T23:01:22.653Z,100296.28
2022-11-23T23:03:55.405Z,100300.44
2022-11-23T23:06:28.316Z,100299.09
2022-11-23T23:08:59.499Z,100305.75
2022-11-23T23:11:28.347Z,100311.22
2022-11-23T23:13:55.533Z,100310.69
2022-11-23T23:16:23.041Z,100316.69
2022-11-23T23:18:50.050Z,100314.31
2022-11-23T23:21:19.133Z,100328.28
2022-11-23T23:23:51.431Z,100327.22
2022-11-23T23:26:20.869Z,100336.53
2022-11-23T23:28:47.986Z,100340.03
2022-11-23T23:31:16.853Z,100347.97
2022-11-23T23:33:44.715Z,100347.28
2022-11-23T23:36:12.370Z,100342.13
2022-11-23T23:38:39.514Z,100348.13
2022-11-23T23:41:07.840Z,100338.50
2022-11-23T23:43:35.249Z,100339.47
2022-11-23T23:46:04.688Z,100339.97
2022-11-23T23:48:33.818Z,100343.13
2022-11-23T23:51:12.508Z,100338.84
2022-11-23T23:53:40.028Z,100335.34
2022-11-23T23:56:12.151Z,100326.03
2022-11-23T23:58:39.373Z,100329.34
